Time;durP1;ratioP1;P1;durP2;ratioP2;P2;SDS_P1;SDS_P2;PMS_P1;PMS_P2;Temp;Humidity;BMP_temperature;BMP_pressure;BME280_temperature;BME280_humidity;BME280_pressure;Samples;Min_cycle;Max_cycle;Signal;HPM_P1;HPM_P2
2022/04/22 00:00:09;;;;;;;5.00;3.10;;;7.80;99.90;;;;;;5057441;28;20473;-53
2022/04/22 00:02:38;;;;;;;3.80;2.97;;;7.70;99.90;;;;;;5058795;28;20532;-54
2022/04/22 00:05:05;;;;;;;7.97;3.53;;;7.60;99.90;;;;;;5063256;28;20511;-56
2022/04/22 00:07:32;;;;;;;13.27;3.87;;;7.60;99.90;;;;;;5058096;28;21029;-55
2022/04/22 00:09:58;;;;;;;5.67;3.43;;;7.50;99.90;;;;;;5058367;28;20540;-54
2022/04/22 00:12:25;;;;;;;9.83;3.67;;;7.30;99.90;;;;;;5061196;28;20517;-55
2022/04/22 00:14:52;;;;;;;7.10;3.67;;;7.20;99.90;;;;;;5055110;28;22699;-53
2022/04/22 00:17:19;;;;;;;6.47;3.97;;;7.10;99.90;;;;;;5062401;28;20489;-54
2022/04/22 00:19:47;;;;;;;4.03;2.77;;;7.10;99.90;;;;;;5062516;28;20572;-53
2022/04/22 00:22:13;;;;;;;9.37;3.83;;;7.00;99.90;;;;;;5057409;28;20551;-54
2022/04/22 00:24:40;;;;;;;7.97;3.60;;;6.90;99.90;;;;;;5056772;28;20516;-54
2022/04/22 00:27:07;;;;;;;7.23;3.90;;;6.90;99.90;;;;;;5050359;28;20535;-55
2022/04/22 00:29:33;;;;;;;5.53;3.97;;;6.80;99.90;;;;;;5057792;28;20491;-55
2022/04/22 00:32:00;;;;;;;5.23;3.67;;;6.70;99.90;;;;;;5059847;28;20555;-54
2022/04/22 00:34:26;;;;;;;9.43;4.10;;;6.70;99.90;;;;;;5056120;28;20462;-55
2022/04/22 00:36:55;;;;;;;7.63;3.53;;;6.60;99.90;;;;;;5060617;28;20568;-54
2022/04/22 00:39:21;;;;;;;4.23;3.43;;;6.50;99.90;;;;;;5060224;28;20472;-54
2022/04/22 00:41:48;;;;;;;4.83;3.90;;;6.50;99.90;;;;;;5056269;28;20553;-53
2022/04/22 00:44:14;;;;;;;7.03;3.97;;;6.40;99.90;;;;;;5050209;28;20951;-55
2022/04/22 00:46:41;;;;;;;7.00;3.97;;;6.40;99.90;;;;;;5058823;28;20515;-53
2022/04/22 00:49:07;;;;;;;7.13;3.70;;;6.30;99.90;;;;;;5052495;28;20569;-54
2022/04/22 00:51:34;;;;;;;7.10;4.13;;;6.20;99.90;;;;;;5058916;28;20535;-54
2022/04/22 00:54:03;;;;;;;4.83;4.13;;;6.20;99.90;;;;;;5055322;28;20561;-55
2022/04/22 00:56:30;;;;;;;6.20;3.83;;;6.20;99.90;;;;;;5055095;28;20509;-54
2022/04/22 00:58:59;;;;;;;6.93;3.93;;;6.10;99.90;;;;;;5060967;28;20540;-54
2022/04/22 01:01:26;;;;;;;10.60;4.63;;;6.00;99.90;;;;;;5056216;28;20572;-54
2022/04/22 01:12:09;;;;;;;8.20;4.70;;;6.00;92.50;;;;;;5044907;28;20979;-58
2022/04/22 01:14:37;;;;;;;8.30;4.20;;;5.90;94.70;;;;;;5049809;28;20457;-57
2022/04/22 01:17:04;;;;;;;11.70;5.30;;;5.90;94.20;;;;;;5049108;28;20458;-57
2022/04/22 01:19:31;;;;;;;9.73;4.23;;;5.80;94.60;;;;;;5052233;28;20545;-58
2022/04/22 01:21:59;;;;;;;7.43;5.10;;;5.80;85.20;;;;;;5042082;28;20461;-57
2022/04/22 01:24:27;;;;;;;8.27;4.73;;;5.70;88.00;;;;;;5052157;28;20580;-57
2022/04/22 01:26:55;;;;;;;8.20;4.20;;;5.70;83.40;;;;;;5052544;28;20462;-58
2022/04/22 01:29:22;;;;;;;7.67;4.67;;;5.60;79.90;;;;;;5054473;28;20500;-58
2022/04/22 01:31:49;;;;;;;10.07;4.60;;;5.60;73.50;;;;;;5051507;28;20498;-58
2022/04/22 01:34:16;;;;;;;7.73;4.80;;;5.50;73.90;;;;;;5054382;28;20478;-58
2022/04/22 01:36:42;;;;;;;7.90;4.73;;;5.40;68.80;;;;;;5052774;28;20549;-57
2022/04/22 01:39:10;;;;;;;12.20;5.53;;;5.40;65.30;;;;;;5051330;28;20564;-58
2022/04/22 01:41:37;;;;;;;8.57;4.57;;;5.30;60.50;;;;;;5051281;28;20573;-58
2022/04/22 01:44:04;;;;;;;13.20;5.80;;;5.30;61.60;;;;;;5054067;28;20473;-57
2022/04/22 01:46:30;;;;;;;8.77;4.50;;;5.30;58.10;;;;;;5052958;28;20481;-57
2022/04/22 01:48:57;;;;;;;9.47;4.97;;;5.20;58.60;;;;;;5053373;28;20552;-58
2022/04/22 01:51:24;;;;;;;12.83;4.57;;;5.20;53.10;;;;;;5043550;28;20455;-58
2022/04/22 01:53:51;;;;;;;7.80;4.43;;;5.20;51.40;;;;;;5047088;28;20536;-58
2022/04/22 01:56:19;;;;;;;8.00;5.13;;;5.10;52.00;;;;;;5049139;28;20825;-57
2022/04/22 01:58:46;;;;;;;6.03;4.47;;;5.10;45.10;;;;;;5046694;28;20872;-57
2022/04/22 02:01:12;;;;;;;6.70;5.00;;;5.10;50.80;;;;;;5049766;28;20572;-58
2022/04/22 02:03:39;;;;;;;6.47;4.83;;;5.00;47.10;;;;;;5053827;28;20454;-57
2022/04/22 02:06:06;;;;;;;10.10;5.20;;;5.00;39.00;;;;;;5052646;28;20501;-57
2022/04/22 02:08:32;;;;;;;9.73;5.97;;;4.90;38.30;;;;;;5052687;28;20931;-57
2022/04/22 02:10:59;;;;;;;7.97;5.03;;;4.90;36.50;;;;;;5044807;28;20928;-57
2022/04/22 02:13:27;;;;;;;12.13;5.23;;;4.90;36.70;;;;;;5050608;28;20556;-57
2022/04/22 02:15:53;;;;;;;6.00;4.47;;;4.80;34.10;;;;;;5049578;28;20561;-56
2022/04/22 02:18:20;;;;;;;12.00;5.07;;;4.80;29.10;;;;;;5053359;28;20513;-58
2022/04/22 02:20:47;;;;;;;7.30;5.23;;;4.80;20.10;;;;;;5052245;28;20577;-58
2022/04/22 02:23:13;;;;;;;5.90;4.70;;;4.80;31.00;;;;;;5052428;28;20462;-58
2022/04/22 02:25:40;;;;;;;8.37;5.20;;;4.70;29.40;;;;;;5053395;28;20973;-58
2022/04/22 02:30:52;;;;;;;6.67;5.00;;;4.70;31.90;;;;;;5049859;28;20971;-58
2022/04/22 02:33:19;;;;;;;11.13;5.00;;;4.60;30.10;;;;;;5052430;28;20544;-58
2022/04/22 02:35:45;;;;;;;8.20;5.20;;;4.60;95.70;;;;;;5051627;28;20490;-57
2022/04/22 02:38:12;;;;;;;10.53;5.80;;;4.60;99.90;;;;;;5052160;28;20485;-58
2022/04/22 02:46:08;;;;;;;8.30;5.53;;;4.50;99.90;;;;;;5041626;28;20559;-57
2022/04/22 02:48:34;;;;;;;7.43;5.33;;;4.50;99.90;;;;;;5051805;28;20925;-57
2022/04/22 02:51:01;;;;;;;11.10;5.23;;;4.50;99.90;;;;;;5050803;28;20529;-58
2022/04/22 02:53:27;;;;;;;5.50;4.97;;;4.40;99.90;;;;;;5048242;28;20580;-58
2022/04/22 02:55:54;;;;;;;11.43;5.70;;;4.50;99.90;;;;;;5055265;28;20521;-57
2022/04/22 02:58:21;;;;;;;9.30;5.33;;;4.50;99.90;;;;;;5044095;28;20577;-58
2022/04/22 03:00:48;;;;;;;21.83;7.00;;;4.50;99.90;;;;;;5050201;28;20576;-58
2022/04/22 03:03:15;;;;;;;11.20;6.33;;;4.40;99.90;;;;;;5051086;28;21015;-59
2022/04/22 03:05:42;;;;;;;12.70;6.27;;;4.40;99.90;;;;;;5051867;28;21016;-57
2022/04/22 03:08:09;;;;;;;13.40;6.00;;;4.40;99.90;;;;;;5050311;28;20532;-58
2022/04/22 03:10:36;;;;;;;7.70;5.30;;;4.30;99.90;;;;;;5052708;28;20914;-57
2022/04/22 03:13:03;;;;;;;9.50;4.90;;;4.30;99.90;;;;;;5050724;28;20485;-58
2022/04/22 03:15:32;;;;;;;11.50;4.97;;;4.30;99.90;;;;;;5049393;28;20464;-58
2022/04/22 03:17:58;;;;;;;9.30;5.93;;;4.30;99.90;;;;;;5042182;28;20485;-58
2022/04/22 03:20:26;;;;;;;9.90;5.80;;;4.30;99.90;;;;;;5052295;28;20572;-58
2022/04/22 03:22:53;;;;;;;13.83;5.57;;;4.30;99.90;;;;;;5046342;28;20544;-56
2022/04/22 03:25:20;;;;;;;10.33;6.27;;;4.30;99.90;;;;;;5044670;28;20502;-57
2022/04/22 03:27:47;;;;;;;6.87;5.50;;;4.30;99.90;;;;;;5050334;28;20508;-58
2022/04/22 03:30:13;;;;;;;6.70;5.67;;;4.30;99.90;;;;;;5050803;28;20994;-57
2022/04/22 03:32:40;;;;;;;9.03;6.00;;;4.40;99.90;;;;;;5043945;28;20520;-58
2022/04/22 03:35:08;;;;;;;10.57;5.83;;;4.40;99.90;;;;;;5051068;28;21028;-58
2022/04/22 03:37:36;;;;;;;9.47;5.90;;;4.40;99.90;;;;;;5049379;28;21092;-58
2022/04/22 03:40:02;;;;;;;10.90;5.70;;;4.40;99.90;;;;;;5051572;28;21019;-58
2022/04/22 03:42:29;;;;;;;6.73;5.73;;;4.40;99.90;;;;;;5049918;28;20598;-57
2022/04/22 03:44:56;;;;;;;7.90;5.37;;;4.40;99.90;;;;;;5056077;28;20450;-57
2022/04/22 03:47:23;;;;;;;12.10;6.57;;;4.40;99.90;;;;;;5057530;28;20494;-60
2022/04/22 03:49:50;;;;;;;8.00;5.43;;;4.40;99.90;;;;;;5053943;28;20462;-57
2022/04/22 03:52:16;;;;;;;8.50;6.13;;;4.40;99.90;;;;;;5056213;28;20462;-59
2022/04/22 03:54:44;;;;;;;12.47;7.70;;;4.40;99.90;;;;;;5050876;28;20493;-58
2022/04/22 03:59:55;;;;;;;14.30;8.30;;;4.50;99.90;;;;;;5050226;28;20545;-59
2022/04/22 04:02:22;;;;;;;17.30;10.73;;;4.50;99.90;;;;;;5050700;28;20486;-58
2022/04/22 04:04:48;;;;;;;19.60;10.43;;;4.40;99.90;;;;;;5050535;28;20553;-57
2022/04/22 04:07:15;;;;;;;12.93;8.97;;;4.40;99.90;;;;;;5043382;28;20442;-57
2022/04/22 04:17:55;;;;;;;19.23;10.60;;;4.50;99.90;;;;;;5046545;28;20528;-58
2022/04/22 04:23:18;;;;;;;15.50;8.77;;;4.40;99.90;;;;;;5050683;28;20453;-56
2022/04/22 04:25:46;;;;;;;13.97;9.07;;;4.40;99.90;;;;;;5049218;28;20467;-55
2022/04/22 04:28:15;;;;;;;11.67;8.50;;;4.40;99.90;;;;;;5051461;28;20486;-55
2022/04/22 04:30:43;;;;;;;11.03;8.10;;;4.40;99.90;;;;;;5048062;28;20493;-56
2022/04/22 04:33:11;;;;;;;11.80;8.33;;;4.50;99.90;;;;;;5050727;28;20532;-55
2022/04/22 04:35:38;;;;;;;14.23;8.93;;;4.40;99.90;;;;;;5051034;28;20450;-54
2022/04/22 04:38:05;;;;;;;12.63;7.70;;;4.50;99.90;;;;;;5047672;28;21149;-56
2022/04/22 04:40:33;;;;;;;11.27;8.20;;;4.50;99.90;;;;;;5050635;28;20464;-56
2022/04/22 04:43:01;;;;;;;9.30;7.40;;;4.50;99.90;;;;;;5040107;28;20469;-55
2022/04/22 04:45:29;;;;;;;15.33;8.30;;;4.50;99.90;;;;;;5049373;28;20965;-55
2022/04/22 04:47:55;;;;;;;9.53;7.60;;;4.60;99.90;;;;;;5050701;28;20874;-55
2022/04/22 04:50:22;;;;;;;12.80;8.40;;;4.70;99.90;;;;;;5049005;28;20515;-55
2022/04/22 04:52:48;;;;;;;13.73;8.50;;;4.70;99.90;;;;;;5042434;28;20573;-55
2022/04/22 04:55:15;;;;;;;11.13;8.20;;;4.70;99.90;;;;;;5054236;28;21008;-55
2022/04/22 04:57:42;;;;;;;17.37;8.33;;;4.80;99.90;;;;;;5051404;28;20462;-54
2022/04/22 05:00:10;;;;;;;10.27;8.37;;;4.90;99.90;;;;;;5052955;28;20522;-55
2022/04/22 05:02:38;;;;;;;10.97;9.07;;;4.90;99.90;;;;;;5053119;28;20605;-55
2022/04/22 05:05:06;;;;;;;10.00;8.37;;;5.00;99.90;;;;;;5051118;28;20549;-56
2022/04/22 05:07:33;;;;;;;11.53;8.63;;;5.00;99.90;;;;;;5054450;28;21076;-55
2022/04/22 05:10:00;;;;;;;11.20;8.20;;;5.10;99.90;;;;;;5046122;28;20549;-54
2022/04/22 05:12:26;;;;;;;12.13;9.00;;;5.10;99.90;;;;;;5049446;28;20916;-56
2022/04/22 05:14:53;;;;;;;7.93;7.10;;;5.10;99.90;;;;;;5053643;28;20525;-55
2022/04/22 05:17:19;;;;;;;8.47;7.53;;;5.10;99.90;;;;;;5053219;28;20520;-54
2022/04/22 05:19:47;;;;;;;11.60;8.80;;;5.10;99.90;;;;;;5052251;28;20550;-56
2022/04/22 05:22:14;;;;;;;11.87;8.47;;;5.10;99.90;;;;;;5053549;28;21016;-55
2022/04/22 05:24:40;;;;;;;8.47;7.67;;;5.20;99.90;;;;;;5054184;28;20477;-56
2022/04/22 05:27:07;;;;;;;11.60;8.33;;;5.10;99.90;;;;;;5053172;28;20856;-55
2022/04/22 05:35:04;;;;;;;10.23;8.10;;;5.30;99.90;;;;;;5048783;28;20461;-55
2022/04/22 05:37:43;;;;;;;16.80;9.13;;;5.40;99.90;;;;;;5050135;28;20486;-57
2022/04/22 05:40:12;;;;;;;10.83;8.10;;;5.60;99.90;;;;;;5051247;28;20473;-56
2022/04/22 05:42:39;;;;;;;11.73;8.70;;;5.70;99.90;;;;;;5053039;28;21075;-55
2022/04/22 05:45:07;;;;;;;11.23;7.83;;;5.70;38.80;;;;;;5051880;28;20465;-56
2022/04/22 05:47:34;;;;;;;12.23;7.93;;;5.70;41.50;;;;;;5050752;28;20946;-56
2022/04/22 05:50:01;;;;;;;14.40;7.80;;;5.90;36.70;;;;;;5052785;28;20486;-56
2022/04/22 05:52:28;;;;;;;11.67;8.10;;;6.00;42.60;;;;;;5052614;28;20537;-55
2022/04/22 05:54:57;;;;;;;11.37;7.80;;;6.10;56.00;;;;;;5055681;28;20533;-57
2022/04/22 05:57:24;;;;;;;12.03;7.80;;;6.10;55.20;;;;;;5050803;28;20481;-56
2022/04/22 05:59:51;;;;;;;17.70;8.50;;;6.20;61.50;;;;;;5053057;28;20493;-55
2022/04/22 06:02:17;;;;;;;14.00;7.50;;;6.20;64.00;;;;;;5053064;28;21028;-57
2022/04/22 06:04:44;;;;;;;9.23;6.97;;;6.20;63.50;;;;;;5052995;28;20560;-55
2022/04/22 06:07:11;;;;;;;9.60;6.27;;;6.20;78.20;;;;;;5047817;28;21057;-55
2022/04/22 06:12:23;;;;;;;8.97;7.40;;;6.30;71.70;;;;;;5049013;28;20452;-56
2022/04/22 06:14:49;;;;;;;16.63;7.47;;;6.30;68.40;;;;;;5045773;28;20542;-55
2022/04/22 06:17:16;;;;;;;10.50;7.90;;;6.50;71.00;;;;;;5049729;28;20493;-55
2022/04/22 06:19:43;;;;;;;11.23;8.87;;;6.70;76.80;;;;;;5051876;28;20465;-56
2022/04/22 06:22:09;;;;;;;9.37;7.00;;;6.80;89.70;;;;;;5050371;28;20916;-55
2022/04/22 06:24:36;;;;;;;13.53;7.20;;;6.90;95.70;;;;;;5049371;28;21021;-56
2022/04/22 06:27:04;;;;;;;11.43;6.73;;;7.10;94.70;;;;;;5052186;28;20494;-55
2022/04/22 06:29:31;;;;;;;11.20;7.00;;;7.30;99.90;;;;;;5052341;28;20975;-56
2022/04/22 06:31:58;;;;;;;8.93;7.07;;;7.50;99.90;;;;;;5049353;28;20482;-57
2022/04/22 06:34:25;;;;;;;10.00;6.57;;;7.60;99.90;;;;;;5042973;28;20496;-55
2022/04/22 06:36:52;;;;;;;8.47;7.40;;;7.80;99.90;;;;;;5048715;28;20541;-56
2022/04/22 06:39:20;;;;;;;11.50;6.60;;;7.80;99.90;;;;;;5052221;28;20477;-55
2022/04/22 06:47:17;;;;;;;11.17;7.47;;;7.80;99.90;;;;;;5050473;28;20448;-55
2022/04/22 06:49:44;;;;;;;9.70;6.43;;;7.90;99.90;;;;;;5045949;28;21001;-56
2022/04/22 06:52:14;;;;;;;11.57;7.70;;;8.00;99.90;;;;;;5044237;28;21028;-55
2022/04/22 06:54:41;;;;;;;8.20;7.00;;;8.10;99.90;;;;;;5042337;28;20458;-56
2022/04/22 06:57:09;;;;;;;11.80;7.67;;;8.20;99.90;;;;;;5049910;28;20492;-55
2022/04/22 06:59:37;;;;;;;8.87;6.73;;;8.30;99.90;;;;;;5046400;28;21076;-55
2022/04/22 07:02:05;;;;;;;11.20;6.90;;;8.40;99.90;;;;;;5049142;28;20656;-56
2022/04/22 07:04:32;;;;;;;11.33;6.63;;;8.60;99.90;;;;;;5051167;28;20501;-56
2022/04/22 07:06:58;;;;;;;12.20;6.70;;;8.60;99.90;;;;;;5047931;28;20462;-55
2022/04/22 07:09:25;;;;;;;11.10;6.40;;;8.80;99.90;;;;;;5052932;28;21071;-54
2022/04/22 07:11:53;;;;;;;6.77;6.00;;;9.10;99.90;;;;;;5049980;28;21009;-54
2022/04/22 07:14:21;;;;;;;13.47;7.13;;;9.20;99.90;;;;;;5052921;28;20535;-54
2022/04/22 07:16:50;;;;;;;12.03;6.80;;;9.20;99.90;;;;;;5043305;28;20530;-55
2022/04/22 07:19:16;;;;;;;13.03;7.03;;;9.40;99.90;;;;;;5046123;28;20492;-54
2022/04/22 07:21:43;;;;;;;14.33;6.30;;;9.50;99.90;;;;;;5052298;28;20566;-55
2022/04/22 07:24:11;;;;;;;13.73;7.03;;;9.60;99.90;;;;;;5051058;28;20537;-54
2022/04/22 07:26:41;;;;;;;11.20;7.00;;;9.50;99.90;;;;;;5033684;28;20529;-55
2022/04/22 07:29:12;;;;;;;11.63;6.13;;;9.60;99.90;;;;;;5049151;28;20909;-56
2022/04/22 07:31:39;;;;;;;10.33;6.50;;;9.60;99.90;;;;;;5048714;28;20481;-54
2022/04/22 07:34:09;;;;;;;11.10;7.47;;;9.30;99.90;;;;;;5048756;28;20453;-54
2022/04/22 07:36:37;;;;;;;15.60;6.90;;;9.20;99.90;;;;;;5049068;28;20458;-55
2022/04/22 07:39:04;;;;;;;15.47;7.30;;;9.40;99.90;;;;;;5048514;28;20565;-55
2022/04/22 07:41:36;;;;;;;12.20;6.53;;;9.40;99.90;;;;;;5050919;28;20458;-55
2022/04/22 07:46:48;;;;;;;11.40;7.63;;;9.40;99.90;;;;;;5048429;28;21003;-55
2022/04/22 07:49:17;;;;;;;9.50;7.13;;;9.50;99.90;;;;;;5048079;28;20479;-55
2022/04/22 07:51:43;;;;;;;14.67;7.57;;;9.40;99.90;;;;;;5048696;28;20468;-55
2022/04/22 07:54:12;;;;;;;9.10;7.53;;;9.40;99.90;;;;;;5050251;28;20499;-54
2022/04/22 07:56:39;;;;;;;16.33;8.17;;;9.40;99.90;;;;;;5051778;28;20450;-54
2022/04/22 07:59:05;;;;;;;10.53;8.37;;;9.60;99.90;;;;;;5051734;28;20469;-56
2022/04/22 08:01:32;;;;;;;18.87;7.47;;;9.60;99.90;;;;;;5049604;28;20454;-55
2022/04/22 08:03:59;;;;;;;14.73;9.37;;;9.70;99.90;;;;;;5044877;28;20500;-54
2022/04/22 08:06:27;;;;;;;17.00;10.40;;;9.70;99.90;;;;;;5051769;28;20450;-54
2022/04/22 08:08:53;;;;;;;11.67;9.60;;;9.80;99.90;;;;;;5048419;28;21026;-55
2022/04/22 08:11:20;;;;;;;13.80;9.57;;;9.90;99.90;;;;;;5047831;28;20532;-55
2022/04/22 08:13:47;;;;;;;13.10;8.70;;;9.80;99.90;;;;;;5051816;28;20434;-54
2022/04/22 08:16:14;;;;;;;9.93;7.87;;;9.90;99.90;;;;;;5047319;28;20500;-54
2022/04/22 08:18:40;;;;;;;11.63;8.80;;;9.80;99.90;;;;;;5048423;28;20960;-54
2022/04/22 08:21:08;;;;;;;15.33;10.43;;;9.90;99.90;;;;;;5051611;28;20438;-55
2022/04/22 08:23:36;;;;;;;13.40;9.13;;;9.90;99.90;;;;;;5050627;28;20481;-55
2022/04/22 08:26:04;;;;;;;14.33;9.10;;;10.00;99.90;;;;;;5048160;28;20512;-54
2022/04/22 08:28:30;;;;;;;12.00;9.13;;;10.10;99.90;;;;;;5050745;28;20560;-54
2022/04/22 08:30:57;;;;;;;13.57;8.83;;;10.20;99.90;;;;;;5046027;28;20509;-53
2022/04/22 08:33:24;;;;;;;13.73;8.70;;;10.40;99.90;;;;;;5046123;28;20545;-55
2022/04/22 08:35:51;;;;;;;12.80;8.43;;;10.50;99.90;;;;;;5050261;28;20450;-55
2022/04/22 08:38:18;;;;;;;14.37;9.77;;;10.60;99.90;;;;;;5048286;28;20509;-55
2022/04/22 08:40:47;;;;;;;13.33;8.40;;;10.70;99.90;;;;;;5049634;28;20536;-53
2022/04/22 08:43:15;;;;;;;15.33;8.73;;;10.70;99.90;;;;;;5048276;28;20577;-54
2022/04/22 08:45:41;;;;;;;12.17;8.53;;;10.80;99.90;;;;;;5042287;28;20560;-56
2022/04/22 08:50:55;;;;;;;13.40;9.20;;;11.00;99.90;;;;;;5045750;28;20564;-56
2022/04/22 08:53:24;;;;;;;14.93;10.70;;;11.10;99.90;;;;;;5046943;28;20462;-56
2022/04/22 08:55:56;;;;;;;14.17;10.93;;;11.00;99.90;;;;;;5046406;28;20503;-54
2022/04/22 08:58:24;;;;;;;13.70;8.47;;;11.10;99.90;;;;;;5044279;28;20481;-55
2022/04/22 09:00:53;;;;;;;11.90;9.43;;;11.10;99.90;;;;;;5045962;28;20999;-54
2022/04/22 09:03:20;;;;;;;11.57;9.20;;;11.20;99.90;;;;;;5046997;28;20492;-54
2022/04/22 09:05:47;;;;;;;18.40;9.43;;;11.30;73.50;;;;;;5048062;28;20545;-54
2022/04/22 09:08:14;;;;;;;12.53;8.83;;;11.40;99.90;;;;;;5050222;28;20505;-55
2022/04/22 09:10:42;;;;;;;12.97;9.70;;;11.60;99.90;;;;;;5050774;28;20477;-54
2022/04/22 09:13:10;;;;;;;14.27;9.00;;;11.70;99.90;;;;;;5048699;28;21096;-55
2022/04/22 09:15:39;;;;;;;12.67;9.50;;;11.60;21.80;;;;;;5050144;28;21059;-54
2022/04/22 09:18:14;;;;;;;14.67;9.90;;;11.80;92.30;;;;;;5050977;28;20468;-54
2022/04/22 09:20:41;;;;;;;13.00;8.63;;;12.00;28.20;;;;;;5049271;28;20937;-55
2022/04/22 09:23:23;;;;;;;16.50;9.70;;;11.90;28.40;;;;;;5049425;28;20505;-54
2022/04/22 09:25:51;;;;;;;9.63;8.67;;;12.00;31.00;;;;;;5046625;28;20461;-55
2022/04/22 09:28:19;;;;;;;15.53;9.90;;;12.10;36.30;;;;;;5049039;28;21040;-53
2022/04/22 09:30:56;;;;;;;14.40;9.10;;;12.20;30.90;;;;;;5050440;28;20504;-56
2022/04/22 09:33:23;;;;;;;16.73;9.50;;;12.50;28.80;;;;;;5045161;28;20521;-54
2022/04/22 09:44:55;;;;;;;12.63;8.50;;;12.70;46.70;;;;;;5048992;28;20445;-54
2022/04/22 09:47:25;;;;;;;10.37;8.60;;;12.70;55.70;;;;;;5044697;28;20462;-53
2022/04/22 09:49:52;;;;;;;9.80;8.40;;;12.90;48.00;;;;;;5049355;28;20493;-53
2022/04/22 09:52:26;;;;;;;8.80;7.57;;;13.10;60.30;;;;;;5049499;28;20458;-55
2022/04/22 09:54:56;;;;;;;13.83;8.50;;;13.10;78.30;;;;;;5047944;28;20458;-54
2022/04/22 09:57:23;;;;;;;14.73;7.43;;;13.40;70.00;;;;;;5053095;28;20473;-54
2022/04/22 09:59:51;;;;;;;10.80;7.70;;;13.70;86.70;;;;;;5049947;28;20547;-55
2022/04/22 10:02:24;;;;;;;12.00;7.93;;;13.90;89.20;;;;;;5046648;28;20463;-54
2022/04/22 10:04:53;;;;;;;8.53;6.87;;;14.10;84.00;;;;;;5046827;28;20565;-54
2022/04/22 10:07:21;;;;;;;11.83;8.20;;;14.20;87.10;;;;;;5049048;28;20494;-54
2022/04/22 10:09:50;;;;;;;11.80;7.10;;;14.20;99.90;;;;;;5050325;28;21317;-54
2022/04/22 10:12:18;;;;;;;12.50;7.50;;;14.30;99.90;;;;;;5049436;28;20552;-55
2022/04/22 10:14:46;;;;;;;7.30;6.57;;;14.70;99.90;;;;;;5046425;28;20565;-54
2022/04/22 10:17:13;;;;;;;8.23;6.60;;;14.50;99.90;;;;;;5046802;28;20548;-54
2022/04/22 10:19:44;;;;;;;7.80;6.07;;;14.60;99.90;;;;;;5049406;28;20552;-55
2022/04/22 10:22:12;;;;;;;8.80;5.80;;;14.60;99.90;;;;;;5050270;28;20462;-54
2022/04/22 10:24:40;;;;;;;7.97;6.77;;;14.90;99.90;;;;;;5042530;28;20466;-56
2022/04/22 10:27:10;;;;;;;6.93;6.30;;;14.70;99.90;;;;;;5050075;28;20486;-54
2022/04/22 10:29:40;;;;;;;7.13;5.90;;;14.40;99.90;;;;;;5050246;28;20486;-56
2022/04/22 10:32:08;;;;;;;9.07;5.90;;;14.30;99.90;;;;;;5048861;28;20458;-55
2022/04/22 10:34:39;;;;;;;7.40;5.50;;;14.40;99.90;;;;;;5049008;28;20600;-55
2022/04/22 10:37:16;;;;;;;6.50;5.90;;;14.20;99.90;;;;;;5049298;28;20822;-54
2022/04/22 10:39:43;;;;;;;5.80;5.30;;;14.30;99.90;;;;;;5047290;28;20470;-54
2022/04/22 10:42:14;;;;;;;7.17;5.93;;;14.50;99.90;;;;;;5045966;28;20549;-54
2022/04/22 10:47:45;;;;;;;8.80;5.27;;;14.50;99.90;;;;;;5049654;28;20548;-55
2022/04/22 10:50:27;;;;;;;7.10;6.37;;;14.70;99.90;;;;;;5049705;28;20465;-55
2022/04/22 10:53:02;;;;;;;7.70;5.67;;;15.00;99.90;;;;;;5042924;28;20564;-55
2022/04/22 10:55:30;;;;;;;6.93;4.70;;;15.00;99.90;;;;;;5040825;28;20458;-55
2022/04/22 10:58:23;;;;;;;7.17;5.23;;;15.20;99.90;;;;;;5046160;28;20565;-55
2022/04/22 11:00:51;;;;;;;5.30;4.80;;;15.50;99.90;;;;;;5049816;28;20457;-56
2022/04/22 11:03:19;;;;;;;6.00;4.50;;;15.70;99.90;;;;;;5048126;28;20512;-55
2022/04/22 11:05:51;;;;;;;6.13;4.57;;;15.60;99.90;;;;;;5051622;28;20945;-55
2022/04/22 11:08:28;;;;;;;5.90;4.90;;;15.30;99.90;;;;;;5048343;28;20501;-54
2022/04/22 11:11:07;;;;;;;10.73;5.20;;;14.90;99.90;;;;;;5049314;28;20465;-55
2022/04/22 11:13:39;;;;;;;9.67;7.07;;;14.80;99.90;;;;;;5049378;28;20561;-55
2022/04/22 11:16:07;;;;;;;18.27;5.20;;;14.70;99.90;;;;;;5047954;28;20490;-54
2022/04/22 11:18:35;;;;;;;6.23;5.30;;;14.40;99.90;;;;;;5048018;28;20485;-55
2022/04/22 11:21:03;;;;;;;16.83;4.70;;;14.20;99.90;;;;;;5047682;28;20900;-54
2022/04/22 11:23:40;;;;;;;5.43;4.30;;;14.10;99.90;;;;;;5048064;28;20516;-55
2022/04/22 11:26:08;;;;;;;13.90;5.00;;;14.00;99.90;;;;;;5049296;28;20465;-54
2022/04/22 11:28:36;;;;;;;15.63;5.00;;;14.00;99.90;;;;;;5040513;28;20590;-55
2022/04/22 11:31:05;;;;;;;12.37;5.33;;;13.90;99.90;;;;;;5044950;28;21015;-55
2022/04/22 11:33:44;;;;;;;6.03;4.87;;;13.90;97.20;;;;;;5047099;28;20485;-55
2022/04/22 11:36:10;;;;;;;14.63;5.50;;;13.80;97.40;;;;;;5045297;28;20462;-55
2022/04/22 11:38:48;;;;;;;15.50;5.83;;;13.60;94.90;;;;;;5044205;28;20489;-54
2022/04/22 11:41:16;;;;;;;12.67;8.60;;;13.50;89.40;;;;;;5045431;28;20640;-55
2022/04/22 11:43:43;;;;;;;14.63;10.03;;;13.20;53.60;;;;;;5047886;28;20492;-55
2022/04/22 11:46:11;;;;;;;17.87;11.17;;;13.10;99.90;;;;;;5049561;28;20507;-55
2022/04/22 11:48:45;;;;;;;13.73;9.87;;;12.90;99.90;;;;;;5049653;28;20984;-54
2022/04/22 11:51:12;;;;;;;18.90;11.30;;;12.80;99.90;;;;;;5047936;28;20462;-54
2022/04/22 11:53:47;;;;;;;24.20;11.80;;;12.80;99.90;;;;;;5044380;28;20489;-55
2022/04/22 11:56:19;;;;;;;16.77;12.80;;;12.70;99.90;;;;;;5044514;28;21021;-55
2022/04/22 11:58:47;;;;;;;14.37;12.90;;;12.60;99.90;;;;;;5045495;28;20489;-55
2022/04/22 12:06:42;;;;;;;19.40;16.77;;;12.50;99.90;;;;;;5046699;28;20453;-55
2022/04/22 12:09:10;;;;;;;21.77;17.87;;;12.50;99.90;;;;;;5047266;28;20557;-54
2022/04/22 12:11:42;;;;;;;20.43;17.30;;;12.50;99.90;;;;;;5040612;28;20924;-55
2022/04/22 12:14:09;;;;;;;25.53;16.83;;;12.60;99.90;;;;;;5040184;28;20466;-55
2022/04/22 12:16:38;;;;;;;21.13;18.93;;;12.60;99.90;;;;;;5042750;28;21053;-55
2022/04/22 12:19:07;;;;;;;28.80;17.70;;;12.60;99.90;;;;;;5046032;28;20481;-55
2022/04/22 12:21:34;;;;;;;28.07;18.77;;;12.40;99.90;;;;;;5048551;28;20493;-53
2022/04/22 12:24:02;;;;;;;20.17;18.17;;;12.40;99.90;;;;;;5049377;28;20488;-55
2022/04/22 12:26:33;;;;;;;21.20;18.03;;;12.40;99.90;;;;;;5049121;28;20472;-55
2022/04/22 12:29:02;;;;;;;30.03;18.40;;;12.40;99.90;;;;;;5043792;28;20488;-55
2022/04/22 12:31:30;;;;;;;22.00;18.20;;;12.60;99.90;;;;;;5047407;28;20458;-55
2022/04/22 12:33:57;;;;;;;18.60;16.70;;;12.60;99.90;;;;;;5048805;28;20553;-54
2022/04/22 12:36:24;;;;;;;24.60;16.53;;;12.70;99.90;;;;;;5047361;28;20544;-55
2022/04/22 12:38:51;;;;;;;27.30;17.80;;;12.70;99.90;;;;;;5048869;28;20513;-54
2022/04/22 12:41:18;;;;;;;19.90;17.77;;;12.70;99.90;;;;;;5050271;28;20504;-55
2022/04/22 12:43:48;;;;;;;19.70;17.10;;;12.90;99.90;;;;;;5048424;28;20496;-55
2022/04/22 12:52:14;;;;;;;16.60;14.80;;;13.30;30.50;;;;;;5049503;28;20489;-56
2022/04/22 12:54:42;;;;;;;14.00;12.07;;;13.50;34.80;;;;;;5051406;28;20433;-53
2022/04/22 12:57:13;;;;;;;13.93;11.60;;;13.60;55.50;;;;;;5051070;28;20926;-55
2022/04/22 12:59:45;;;;;;;13.50;10.87;;;13.60;70.50;;;;;;5049801;28;20457;-55
2022/04/22 13:02:13;;;;;;;10.53;8.80;;;13.50;72.00;;;;;;5050877;28;20434;-54
2022/04/22 13:04:53;;;;;;;7.70;6.90;;;13.70;72.40;;;;;;5050989;28;20556;-55
2022/04/22 13:07:21;;;;;;;7.63;6.83;;;13.60;89.10;;;;;;5051174;28;20476;-54
2022/04/22 13:09:47;;;;;;;6.90;6.03;;;13.40;99.90;;;;;;5049759;28;20457;-50
2022/04/22 13:12:14;;;;;;;7.03;6.17;;;13.40;99.90;;;;;;5050601;28;20976;-51
2022/04/22 13:14:41;;;;;;;8.40;7.60;;;13.40;96.90;;;;;;5051969;28;20529;-49
2022/04/22 13:17:21;;;;;;;7.97;7.27;;;13.60;96.50;;;;;;5053472;28;20500;-50
2022/04/22 13:19:48;;;;;;;7.73;6.93;;;13.90;97.60;;;;;;5053709;28;20552;-50
2022/04/22 13:22:14;;;;;;;10.73;7.77;;;14.10;94.40;;;;;;5054658;28;20477;-50
2022/04/22 13:24:44;;;;;;;10.50;8.50;;;14.10;99.90;;;;;;5053840;28;20477;-51
2022/04/22 13:27:11;;;;;;;9.70;8.70;;;14.30;99.90;;;;;;5050137;28;20449;-50
2022/04/22 13:29:38;;;;;;;12.40;11.10;;;14.20;99.90;;;;;;5053297;28;20549;-50
2022/04/22 13:32:05;;;;;;;13.47;11.30;;;14.30;99.90;;;;;;5053519;28;20453;-50
2022/04/22 13:34:32;;;;;;;14.73;13.07;;;14.20;99.90;;;;;;5049066;28;20513;-50
2022/04/22 13:36:59;;;;;;;13.50;11.97;;;14.20;99.90;;;;;;5051685;28;21024;-50
2022/04/22 13:39:26;;;;;;;16.97;13.43;;;14.20;99.90;;;;;;5054253;28;20549;-50
2022/04/22 13:41:52;;;;;;;14.80;11.83;;;14.30;99.90;;;;;;5054182;28;20434;-50
2022/04/22 13:52:21;;;;;;;22.20;12.93;;;14.30;99.10;;;;;;5054197;28;20480;-50
2022/04/22 13:52:35;;;;;;;15.80;12.30;;;13.70;88.80;;;;;;5051426;28;20608;-50
2022/04/22 13:55:02;;;;;;;15.37;11.17;;;13.60;82.60;;;;;;5052305;28;20490;-51
2022/04/22 13:57:29;;;;;;;12.50;11.20;;;13.40;79.90;;;;;;5050001;28;20466;-49
2022/04/22 13:59:55;;;;;;;12.00;10.70;;;13.40;78.80;;;;;;5051869;28;20548;-52
2022/04/22 14:02:22;;;;;;;12.40;11.10;;;13.30;76.70;;;;;;5050571;28;20546;-50
2022/04/22 14:04:50;;;;;;;13.20;11.90;;;13.30;75.90;;;;;;5052522;28;21222;-50
2022/04/22 14:07:17;;;;;;;13.60;11.83;;;13.40;78.80;;;;;;5043167;28;20492;-50